sensor_id;sensor_type;location;lat;lon;timestamp;P1;durP1;ratioP1;P2;durP2;ratioP2
1020;SDS011;499;42.648;23.270;2023-07-29T00:01:40;1.60;;;0.80;;
1020;SDS011;499;42.648;23.270;2023-07-29T00:04:07;1.80;;;1.20;;
1020;SDS011;499;42.648;23.270;2023-07-29T00:06:35;1.93;;;1.07;;
1020;SDS011;499;42.648;23.270;2023-07-29T00:09:02;1.77;;;1.20;;
1020;SDS011;499;42.648;23.270;2023-07-29T00:11:31;1.80;;;1.20;;
1020;SDS011;499;42.648;23.270;2023-07-29T00:13:59;2.00;;;1.10;;
1020;SDS011;499;42.648;23.270;2023-07-29T00:16:26;1.40;;;0.90;;
1020;SDS011;499;42.648;23.270;2023-07-29T00:18:53;1.60;;;1.00;;
1020;SDS011;499;42.648;23.270;2023-07-29T00:21:20;1.50;;;0.90;;
1020;SDS011;499;42.648;23.270;2023-07-29T00:23:47;1.60;;;1.10;;
1020;SDS011;499;42.648;23.270;2023-07-29T00:26:14;1.70;;;1.10;;
1020;SDS011;499;42.648;23.270;2023-07-29T00:28:42;2.20;;;1.10;;
1020;SDS011;499;42.648;23.270;2023-07-29T00:31:09;1.53;;;1.03;;
1020;SDS011;499;42.648;23.270;2023-07-29T00:33:36;1.97;;;1.00;;
1020;SDS011;499;42.648;23.270;2023-07-29T00:36:03;2.03;;;1.40;;
1020;SDS011;499;42.648;23.270;2023-07-29T00:38:30;1.93;;;1.20;;
1020;SDS011;499;42.648;23.270;2023-07-29T00:40:57;2.10;;;1.40;;
1020;SDS011;499;42.648;23.270;2023-07-29T00:43:25;1.33;;;0.93;;
1020;SDS011;499;42.648;23.270;2023-07-29T00:45:54;1.60;;;1.17;;
1020;SDS011;499;42.648;23.270;2023-07-29T00:48:22;2.10;;;1.13;;
1020;SDS011;499;42.648;23.270;2023-07-29T00:50:50;1.50;;;0.90;;
1020;SDS011;499;42.648;23.270;2023-07-29T00:53:17;1.53;;;1.07;;
1020;SDS011;499;42.648;23.270;2023-07-29T00:55:44;1.90;;;1.10;;
1020;SDS011;499;42.648;23.270;2023-07-29T00:58:12;1.60;;;1.07;;
1020;SDS011;499;42.648;23.270;2023-07-29T01:00:39;1.60;;;1.30;;
1020;SDS011;499;42.648;23.270;2023-07-29T01:03:07;1.73;;;1.20;;
1020;SDS011;499;42.648;23.270;2023-07-29T01:05:36;2.00;;;1.20;;
1020;SDS011;499;42.648;23.270;2023-07-29T01:08:13;1.63;;;1.20;;
1020;SDS011;499;42.648;23.270;2023-07-29T01:10:51;2.03;;;1.10;;
1020;SDS011;499;42.648;23.270;2023-07-29T01:13:28;1.73;;;1.00;;
1020;SDS011;499;42.648;23.270;2023-07-29T01:16:04;1.80;;;1.17;;
1020;SDS011;499;42.648;23.270;2023-07-29T01:18:36;1.90;;;0.97;;
1020;SDS011;499;42.648;23.270;2023-07-29T01:21:07;3.30;;;0.87;;
1020;SDS011;499;42.648;23.270;2023-07-29T01:23:36;1.57;;;0.90;;
1020;SDS011;499;42.648;23.270;2023-07-29T01:26:03;2.03;;;1.47;;
1020;SDS011;499;42.648;23.270;2023-07-29T01:28:30;2.23;;;1.50;;
1020;SDS011;499;42.648;23.270;2023-07-29T01:30:59;2.13;;;1.10;;
1020;SDS011;499;42.648;23.270;2023-07-29T01:33:30;1.73;;;1.00;;
1020;SDS011;499;42.648;23.270;2023-07-29T01:36:06;1.80;;;1.10;;
1020;SDS011;499;42.648;23.270;2023-07-29T01:38:40;1.53;;;1.03;;
1020;SDS011;499;42.648;23.270;2023-07-29T01:41:09;1.80;;;1.30;;
1020;SDS011;499;42.648;23.270;2023-07-29T01:43:37;1.87;;;1.33;;
1020;SDS011;499;42.648;23.270;2023-07-29T01:46:09;1.50;;;0.97;;
1020;SDS011;499;42.648;23.270;2023-07-29T01:48:36;1.73;;;1.10;;
1020;SDS011;499;42.648;23.270;2023-07-29T01:51:03;1.50;;;1.13;;
1020;SDS011;499;42.648;23.270;2023-07-29T01:53:31;1.60;;;0.97;;
1020;SDS011;499;42.648;23.270;2023-07-29T01:55:59;1.50;;;1.23;;
1020;SDS011;499;42.648;23.270;2023-07-29T01:58:26;1.80;;;1.10;;
1020;SDS011;499;42.648;23.270;2023-07-29T02:00:53;2.20;;;1.40;;
1020;SDS011;499;42.648;23.270;2023-07-29T02:03:20;1.93;;;1.40;;
1020;SDS011;499;42.648;23.270;2023-07-29T02:05:47;1.93;;;1.30;;
1020;SDS011;499;42.648;23.270;2023-07-29T02:08:14;2.03;;;1.30;;
1020;SDS011;499;42.648;23.270;2023-07-29T02:10:41;1.60;;;1.27;;
1020;SDS011;499;42.648;23.270;2023-07-29T02:13:11;2.37;;;1.23;;
1020;SDS011;499;42.648;23.270;2023-07-29T02:15:38;1.40;;;0.90;;
1020;SDS011;499;42.648;23.270;2023-07-29T02:18:05;1.87;;;1.10;;
1020;SDS011;499;42.648;23.270;2023-07-29T02:20:32;2.37;;;1.80;;
1020;SDS011;499;42.648;23.270;2023-07-29T02:22:59;1.83;;;1.10;;
1020;SDS011;499;42.648;23.270;2023-07-29T02:25:26;1.83;;;1.30;;
1020;SDS011;499;42.648;23.270;2023-07-29T02:27:53;3.10;;;2.53;;
1020;SDS011;499;42.648;23.270;2023-07-29T02:30:22;1.97;;;1.40;;
1020;SDS011;499;42.648;23.270;2023-07-29T02:32:49;1.47;;;1.17;;
1020;SDS011;499;42.648;23.270;2023-07-29T02:35:16;1.60;;;1.50;;
1020;SDS011;499;42.648;23.270;2023-07-29T02:37:43;1.97;;;1.37;;
1020;SDS011;499;42.648;23.270;2023-07-29T02:40:10;1.93;;;1.40;;
1020;SDS011;499;42.648;23.270;2023-07-29T02:42:37;1.70;;;1.10;;
1020;SDS011;499;42.648;23.270;2023-07-29T02:45:05;1.63;;;1.00;;
1020;SDS011;499;42.648;23.270;2023-07-29T02:47:36;2.20;;;1.23;;
1020;SDS011;499;42.648;23.270;2023-07-29T02:50:03;2.03;;;1.40;;
1020;SDS011;499;42.648;23.270;2023-07-29T02:52:31;1.87;;;1.27;;
1020;SDS011;499;42.648;23.270;2023-07-29T02:54:58;2.40;;;2.20;;
1020;SDS011;499;42.648;23.270;2023-07-29T02:57:25;2.13;;;1.63;;
1020;SDS011;499;42.648;23.270;2023-07-29T02:59:52;1.80;;;1.03;;
1020;SDS011;499;42.648;23.270;2023-07-29T03:02:19;3.43;;;1.67;;
1020;SDS011;499;42.648;23.270;2023-07-29T03:04:48;2.37;;;1.37;;
1020;SDS011;499;42.648;23.270;2023-07-29T03:07:15;1.60;;;1.07;;
1020;SDS011;499;42.648;23.270;2023-07-29T03:09:42;1.83;;;1.10;;
1020;SDS011;499;42.648;23.270;2023-07-29T03:12:10;2.00;;;1.30;;
1020;SDS011;499;42.648;23.270;2023-07-29T03:14:37;2.00;;;1.40;;
1020;SDS011;499;42.648;23.270;2023-07-29T03:17:04;2.47;;;1.67;;
1020;SDS011;499;42.648;23.270;2023-07-29T03:19:31;2.13;;;1.40;;
1020;SDS011;499;42.648;23.270;2023-07-29T03:22:00;2.27;;;1.60;;
1020;SDS011;499;42.648;23.270;2023-07-29T03:24:27;2.10;;;1.07;;
1020;SDS011;499;42.648;23.270;2023-07-29T03:26:54;1.73;;;1.20;;
1020;SDS011;499;42.648;23.270;2023-07-29T03:29:21;2.00;;;1.30;;
1020;SDS011;499;42.648;23.270;2023-07-29T03:31:47;2.00;;;1.53;;
1020;SDS011;499;42.648;23.270;2023-07-29T03:34:14;1.47;;;1.13;;
1020;SDS011;499;42.648;23.270;2023-07-29T03:36:41;2.87;;;1.67;;
1020;SDS011;499;42.648;23.270;2023-07-29T03:39:12;1.60;;;1.00;;
1020;SDS011;499;42.648;23.270;2023-07-29T03:41:39;1.50;;;0.93;;
1020;SDS011;499;42.648;23.270;2023-07-29T03:44:06;2.20;;;1.57;;
1020;SDS011;499;42.648;23.270;2023-07-29T03:46:33;2.17;;;1.43;;
1020;SDS011;499;42.648;23.270;2023-07-29T03:49:00;2.13;;;1.10;;
1020;SDS011;499;42.648;23.270;2023-07-29T03:51:28;3.10;;;2.10;;
1020;SDS011;499;42.648;23.270;2023-07-29T03:53:55;2.57;;;1.73;;
1020;SDS011;499;42.648;23.270;2023-07-29T03:56:23;2.30;;;1.50;;
1020;SDS011;499;42.648;23.270;2023-07-29T03:58:50;1.67;;;1.10;;
1020;SDS011;499;42.648;23.270;2023-07-29T04:01:18;2.20;;;1.60;;
1020;SDS011;499;42.648;23.270;2023-07-29T04:03:44;1.80;;;1.27;;
1020;SDS011;499;42.648;23.270;2023-07-29T04:06:11;2.00;;;1.33;;
1020;SDS011;499;42.648;23.270;2023-07-29T04:08:38;2.03;;;1.57;;
1020;SDS011;499;42.648;23.270;2023-07-29T04:11:06;2.83;;;1.67;;
1020;SDS011;499;42.648;23.270;2023-07-29T04:13:35;3.00;;;1.83;;
1020;SDS011;499;42.648;23.270;2023-07-29T04:16:02;3.27;;;1.60;;
1020;SDS011;499;42.648;23.270;2023-07-29T04:18:30;2.17;;;1.50;;
1020;SDS011;499;42.648;23.270;2023-07-29T04:20:57;2.23;;;1.80;;
1020;SDS011;499;42.648;23.270;2023-07-29T04:23:23;2.90;;;2.00;;
1020;SDS011;499;42.648;23.270;2023-07-29T04:25:50;2.57;;;1.77;;
1020;SDS011;499;42.648;23.270;2023-07-29T04:28:18;2.37;;;1.90;;
1020;SDS011;499;42.648;23.270;2023-07-29T04:30:47;1.70;;;1.30;;
1020;SDS011;499;42.648;23.270;2023-07-29T04:33:14;3.33;;;3.03;;
1020;SDS011;499;42.648;23.270;2023-07-29T04:35:41;2.20;;;1.63;;
1020;SDS011;499;42.648;23.270;2023-07-29T04:38:08;2.30;;;1.70;;
1020;SDS011;499;42.648;23.270;2023-07-29T04:40:34;2.70;;;2.20;;
1020;SDS011;499;42.648;23.270;2023-07-29T04:43:01;2.47;;;1.97;;
1020;SDS011;499;42.648;23.270;2023-07-29T04:45:29;2.50;;;1.67;;
1020;SDS011;499;42.648;23.270;2023-07-29T04:47:57;2.17;;;1.87;;
1020;SDS011;499;42.648;23.270;2023-07-29T04:50:25;2.40;;;1.80;;
1020;SDS011;499;42.648;23.270;2023-07-29T04:52:52;1.87;;;1.50;;
1020;SDS011;499;42.648;23.270;2023-07-29T04:55:19;2.13;;;1.80;;
1020;SDS011;499;42.648;23.270;2023-07-29T04:57:46;3.00;;;1.60;;
1020;SDS011;499;42.648;23.270;2023-07-29T05:00:13;2.33;;;2.13;;
1020;SDS011;499;42.648;23.270;2023-07-29T05:02:40;2.87;;;1.80;;
1020;SDS011;499;42.648;23.270;2023-07-29T05:05:08;2.93;;;1.97;;
1020;SDS011;499;42.648;23.270;2023-07-29T05:07:35;2.10;;;1.40;;
1020;SDS011;499;42.648;23.270;2023-07-29T05:10:03;2.63;;;2.13;;
1020;SDS011;499;42.648;23.270;2023-07-29T05:12:30;3.63;;;1.80;;
1020;SDS011;499;42.648;23.270;2023-07-29T05:14:58;3.50;;;2.80;;
1020;SDS011;499;42.648;23.270;2023-07-29T05:17:25;2.70;;;1.93;;
1020;SDS011;499;42.648;23.270;2023-07-29T05:19:52;2.30;;;1.67;;
1020;SDS011;499;42.648;23.270;2023-07-29T05:22:20;2.57;;;1.87;;
1020;SDS011;499;42.648;23.270;2023-07-29T05:24:47;2.87;;;2.00;;
1020;SDS011;499;42.648;23.270;2023-07-29T05:27:14;2.53;;;2.13;;
1020;SDS011;499;42.648;23.270;2023-07-29T05:29:41;2.20;;;1.50;;
1020;SDS011;499;42.648;23.270;2023-07-29T05:32:08;1.70;;;1.40;;
1020;SDS011;499;42.648;23.270;2023-07-29T05:34:35;5.53;;;2.50;;
1020;SDS011;499;42.648;23.270;2023-07-29T05:37:02;3.53;;;2.10;;
1020;SDS011;499;42.648;23.270;2023-07-29T05:39:31;2.70;;;2.30;;
1020;SDS011;499;42.648;23.270;2023-07-29T05:41:58;3.93;;;1.93;;
1020;SDS011;499;42.648;23.270;2023-07-29T05:44:27;2.20;;;1.47;;
1020;SDS011;499;42.648;23.270;2023-07-29T05:46:55;2.17;;;1.90;;
1020;SDS011;499;42.648;23.270;2023-07-29T05:49:22;2.67;;;2.17;;
1020;SDS011;499;42.648;23.270;2023-07-29T05:51:49;2.87;;;2.00;;
1020;SDS011;499;42.648;23.270;2023-07-29T05:54:18;2.30;;;1.63;;
1020;SDS011;499;42.648;23.270;2023-07-29T05:56:46;2.57;;;2.00;;
1020;SDS011;499;42.648;23.270;2023-07-29T05:59:13;3.83;;;1.90;;
1020;SDS011;499;42.648;23.270;2023-07-29T06:01:40;2.40;;;2.03;;
1020;SDS011;499;42.648;23.270;2023-07-29T06:04:06;2.20;;;1.50;;
1020;SDS011;499;42.648;23.270;2023-07-29T06:06:33;1.90;;;1.60;;
1020;SDS011;499;42.648;23.270;2023-07-29T06:09:00;2.33;;;1.67;;
1020;SDS011;499;42.648;23.270;2023-07-29T06:11:27;2.63;;;1.77;;
1020;SDS011;499;42.648;23.270;2023-07-29T06:13:55;1.93;;;1.23;;
1020;SDS011;499;42.648;23.270;2023-07-29T06:16:22;2.73;;;1.93;;
1020;SDS011;499;42.648;23.270;2023-07-29T06:18:48;2.37;;;1.30;;
1020;SDS011;499;42.648;23.270;2023-07-29T06:21:17;2.33;;;1.70;;
1020;SDS011;499;42.648;23.270;2023-07-29T06:23:45;1.70;;;1.20;;
1020;SDS011;499;42.648;23.270;2023-07-29T06:26:12;2.20;;;1.57;;
1020;SDS011;499;42.648;23.270;2023-07-29T06:28:39;2.47;;;2.10;;
1020;SDS011;499;42.648;23.270;2023-07-29T06:31:07;1.73;;;1.30;;
1020;SDS011;499;42.648;23.270;2023-07-29T06:33:34;1.93;;;1.40;;
1020;SDS011;499;42.648;23.270;2023-07-29T06:36:01;1.67;;;1.13;;
1020;SDS011;499;42.648;23.270;2023-07-29T06:38:29;2.40;;;1.53;;
1020;SDS011;499;42.648;23.270;2023-07-29T06:40:56;2.00;;;1.57;;
1020;SDS011;499;42.648;23.270;2023-07-29T06:43:23;2.23;;;1.70;;
1020;SDS011;499;42.648;23.270;2023-07-29T06:45:50;2.00;;;1.50;;
1020;SDS011;499;42.648;23.270;2023-07-29T06:48:19;2.00;;;1.40;;
1020;SDS011;499;42.648;23.270;2023-07-29T06:50:46;2.80;;;1.50;;
1020;SDS011;499;42.648;23.270;2023-07-29T06:53:13;2.57;;;1.57;;
1020;SDS011;499;42.648;23.270;2023-07-29T06:55:40;2.83;;;2.00;;
1020;SDS011;499;42.648;23.270;2023-07-29T06:58:07;1.60;;;1.20;;
1020;SDS011;499;42.648;23.270;2023-07-29T07:00:34;2.10;;;1.30;;
1020;SDS011;499;42.648;23.270;2023-07-29T07:03:01;5.23;;;2.90;;
1020;SDS011;499;42.648;23.270;2023-07-29T07:05:29;2.00;;;1.30;;
1020;SDS011;499;42.648;23.270;2023-07-29T07:07:56;4.80;;;1.90;;
1020;SDS011;499;42.648;23.270;2023-07-29T07:10:23;2.07;;;1.10;;
1020;SDS011;499;42.648;23.270;2023-07-29T07:12:50;2.13;;;1.60;;
1020;SDS011;499;42.648;23.270;2023-07-29T07:15:17;3.60;;;2.03;;
1020;SDS011;499;42.648;23.270;2023-07-29T07:17:44;1.90;;;1.30;;
1020;SDS011;499;42.648;23.270;2023-07-29T07:20:11;1.97;;;1.47;;
1020;SDS011;499;42.648;23.270;2023-07-29T07:22:39;2.40;;;1.33;;
1020;SDS011;499;42.648;23.270;2023-07-29T07:25:07;1.97;;;1.43;;
1020;SDS011;499;42.648;23.270;2023-07-29T07:27:34;2.37;;;1.60;;
1020;SDS011;499;42.648;23.270;2023-07-29T07:30:02;2.70;;;1.47;;
1020;SDS011;499;42.648;23.270;2023-07-29T07:32:29;1.60;;;1.10;;
1020;SDS011;499;42.648;23.270;2023-07-29T07:34:56;2.00;;;1.40;;
1020;SDS011;499;42.648;23.270;2023-07-29T07:37:23;2.67;;;1.70;;
1020;SDS011;499;42.648;23.270;2023-07-29T07:39:52;2.20;;;1.53;;
1020;SDS011;499;42.648;23.270;2023-07-29T07:42:19;1.77;;;1.20;;
1020;SDS011;499;42.648;23.270;2023-07-29T07:44:46;2.13;;;1.20;;
1020;SDS011;499;42.648;23.270;2023-07-29T07:47:13;2.20;;;1.47;;
1020;SDS011;499;42.648;23.270;2023-07-29T07:49:40;2.93;;;1.90;;
1020;SDS011;499;42.648;23.270;2023-07-29T07:52:07;1.50;;;1.00;;
1020;SDS011;499;42.648;23.270;2023-07-29T07:54:34;2.30;;;1.30;;
1020;SDS011;499;42.648;23.270;2023-07-29T07:57:02;2.00;;;1.33;;
1020;SDS011;499;42.648;23.270;2023-07-29T07:59:30;3.30;;;1.40;;
1020;SDS011;499;42.648;23.270;2023-07-29T08:01:57;1.70;;;1.37;;
1020;SDS011;499;42.648;23.270;2023-07-29T08:04:24;2.93;;;1.67;;
1020;SDS011;499;42.648;23.270;2023-07-29T08:06:51;2.30;;;1.43;;
1020;SDS011;499;42.648;23.270;2023-07-29T08:09:17;1.53;;;0.90;;
1020;SDS011;499;42.648;23.270;2023-07-29T08:11:44;1.80;;;1.03;;
1020;SDS011;499;42.648;23.270;2023-07-29T08:14:13;2.23;;;1.50;;
1020;SDS011;499;42.648;23.270;2023-07-29T08:16:40;2.00;;;1.10;;
1020;SDS011;499;42.648;23.270;2023-07-29T08:19:07;2.37;;;1.33;;
1020;SDS011;499;42.648;23.270;2023-07-29T08:21:35;1.90;;;1.40;;
1020;SDS011;499;42.648;23.270;2023-07-29T08:24:02;1.73;;;1.00;;
1020;SDS011;499;42.648;23.270;2023-07-29T08:26:29;2.10;;;1.60;;
1020;SDS011;499;42.648;23.270;2023-07-29T08:28:56;2.30;;;1.40;;
1020;SDS011;499;42.648;23.270;2023-07-29T08:31:24;1.60;;;1.00;;
1020;SDS011;499;42.648;23.270;2023-07-29T08:33:51;2.17;;;1.40;;
1020;SDS011;499;42.648;23.270;2023-07-29T08:36:18;2.33;;;2.03;;
1020;SDS011;499;42.648;23.270;2023-07-29T08:38:45;2.00;;;1.47;;
1020;SDS011;499;42.648;23.270;2023-07-29T08:41:13;2.07;;;1.17;;
1020;SDS011;499;42.648;23.270;2023-07-29T08:43:43;1.90;;;1.20;;
1020;SDS011;499;42.648;23.270;2023-07-29T08:46:15;1.80;;;1.30;;
1020;SDS011;499;42.648;23.270;2023-07-29T08:48:44;1.97;;;1.20;;
1020;SDS011;499;42.648;23.270;2023-07-29T08:51:12;2.33;;;1.50;;
1020;SDS011;499;42.648;23.270;2023-07-29T08:53:40;1.67;;;1.10;;
1020;SDS011;499;42.648;23.270;2023-07-29T08:56:08;2.07;;;1.33;;
1020;SDS011;499;42.648;23.270;2023-07-29T08:58:35;2.17;;;1.23;;
1020;SDS011;499;42.648;23.270;2023-07-29T09:01:03;1.70;;;1.40;;
1020;SDS011;499;42.648;23.270;2023-07-29T09:03:31;1.80;;;1.03;;
1020;SDS011;499;42.648;23.270;2023-07-29T09:06:00;1.60;;;1.03;;
1020;SDS011;499;42.648;23.270;2023-07-29T09:08:29;2.17;;;1.10;;
1020;SDS011;499;42.648;23.270;2023-07-29T09:10:56;1.60;;;0.90;;
1020;SDS011;499;42.648;23.270;2023-07-29T09:13:23;1.70;;;1.17;;
1020;SDS011;499;42.648;23.270;2023-07-29T09:15:53;1.50;;;0.93;;
1020;SDS011;499;42.648;23.270;2023-07-29T09:18:22;1.53;;;0.70;;
1020;SDS011;499;42.648;23.270;2023-07-29T09:20:49;1.40;;;0.73;;
1020;SDS011;499;42.648;23.270;2023-07-29T09:23:18;1.50;;;1.00;;
1020;SDS011;499;42.648;23.270;2023-07-29T09:25:46;1.60;;;0.90;;
1020;SDS011;499;42.648;23.270;2023-07-29T09:28:14;2.13;;;1.13;;
1020;SDS011;499;42.648;23.270;2023-07-29T09:30:42;1.53;;;0.83;;
1020;SDS011;499;42.648;23.270;2023-07-29T09:33:10;2.70;;;1.50;;
1020;SDS011;499;42.648;23.270;2023-07-29T09:35:38;1.47;;;0.90;;
1020;SDS011;499;42.648;23.270;2023-07-29T09:38:05;1.53;;;0.90;;
1020;SDS011;499;42.648;23.270;2023-07-29T09:40:37;2.30;;;1.03;;
1020;SDS011;499;42.648;23.270;2023-07-29T09:43:06;1.40;;;0.70;;
1020;SDS011;499;42.648;23.270;2023-07-29T09:45:35;2.50;;;1.10;;
1020;SDS011;499;42.648;23.270;2023-07-29T09:48:03;1.63;;;0.93;;
1020;SDS011;499;42.648;23.270;2023-07-29T09:50:34;1.67;;;0.70;;
1020;SDS011;499;42.648;23.270;2023-07-29T09:53:01;1.33;;;0.70;;
1020;SDS011;499;42.648;23.270;2023-07-29T09:55:29;1.40;;;0.70;;
1020;SDS011;499;42.648;23.270;2023-07-29T09:58:00;1.80;;;0.90;;
1020;SDS011;499;42.648;23.270;2023-07-29T10:00:32;1.77;;;0.90;;
1020;SDS011;499;42.648;23.270;2023-07-29T10:02:59;1.47;;;0.70;;
1020;SDS011;499;42.648;23.270;2023-07-29T10:05:27;1.20;;;0.70;;
1020;SDS011;499;42.648;23.270;2023-07-29T10:07:55;1.47;;;0.87;;
1020;SDS011;499;42.648;23.270;2023-07-29T10:10:22;1.33;;;0.63;;
1020;SDS011;499;42.648;23.270;2023-07-29T10:12:50;1.53;;;0.93;;
1020;SDS011;499;42.648;23.270;2023-07-29T10:15:18;1.30;;;0.60;;
1020;SDS011;499;42.648;23.270;2023-07-29T10:17:46;1.33;;;0.70;;
1020;SDS011;499;42.648;23.270;2023-07-29T10:20:16;2.53;;;0.50;;
1020;SDS011;499;42.648;23.270;2023-07-29T10:22:43;1.30;;;0.67;;
1020;SDS011;499;42.648;23.270;2023-07-29T10:25:15;2.20;;;0.50;;
1020;SDS011;499;42.648;23.270;2023-07-29T10:27:43;1.80;;;0.60;;
1020;SDS011;499;42.648;23.270;2023-07-29T10:30:14;1.20;;;0.60;;
1020;SDS011;499;42.648;23.270;2023-07-29T10:32:45;1.50;;;0.70;;
1020;SDS011;499;42.648;23.270;2023-07-29T10:35:12;1.53;;;0.60;;
1020;SDS011;499;42.648;23.270;2023-07-29T10:37:40;1.33;;;0.77;;
1020;SDS011;499;42.648;23.270;2023-07-29T10:40:09;1.60;;;0.83;;
1020;SDS011;499;42.648;23.270;2023-07-29T10:42:37;1.30;;;0.67;;
1020;SDS011;499;42.648;23.270;2023-07-29T10:45:17;1.87;;;1.13;;
1020;SDS011;499;42.648;23.270;2023-07-29T10:47:47;1.40;;;0.70;;
1020;SDS011;499;42.648;23.270;2023-07-29T10:50:17;1.97;;;0.70;;
1020;SDS011;499;42.648;23.270;2023-07-29T10:52:48;1.40;;;0.60;;
1020;SDS011;499;42.648;23.270;2023-07-29T10:55:26;1.40;;;0.80;;
1020;SDS011;499;42.648;23.270;2023-07-29T10:58:05;1.77;;;0.87;;
1020;SDS011;499;42.648;23.270;2023-07-29T11:00:38;1.33;;;0.60;;
1020;SDS011;499;42.648;23.270;2023-07-29T11:03:06;1.97;;;0.83;;
1020;SDS011;499;42.648;23.270;2023-07-29T11:05:44;1.27;;;0.63;;
1020;SDS011;499;42.648;23.270;2023-07-29T11:08:16;1.20;;;0.50;;
1020;SDS011;499;42.648;23.270;2023-07-29T11:10:44;1.97;;;0.77;;
1020;SDS011;499;42.648;23.270;2023-07-29T11:13:23;1.20;;;0.53;;
1020;SDS011;499;42.648;23.270;2023-07-29T11:15:53;1.20;;;0.60;;
1020;SDS011;499;42.648;23.270;2023-07-29T11:18:22;1.30;;;0.60;;
1020;SDS011;499;42.648;23.270;2023-07-29T11:20:53;2.53;;;0.70;;
1020;SDS011;499;42.648;23.270;2023-07-29T11:23:20;1.83;;;0.83;;
1020;SDS011;499;42.648;23.270;2023-07-29T11:25:48;1.50;;;0.60;;
1020;SDS011;499;42.648;23.270;2023-07-29T11:28:16;1.33;;;0.63;;
1020;SDS011;499;42.648;23.270;2023-07-29T11:30:43;1.30;;;0.70;;
1020;SDS011;499;42.648;23.270;2023-07-29T11:33:10;1.77;;;0.50;;
1020;SDS011;499;42.648;23.270;2023-07-29T11:35:39;1.63;;;0.70;;
1020;SDS011;499;42.648;23.270;2023-07-29T11:38:06;1.30;;;0.50;;
1020;SDS011;499;42.648;23.270;2023-07-29T11:40:33;1.10;;;0.37;;
1020;SDS011;499;42.648;23.270;2023-07-29T11:43:00;1.10;;;0.40;;
1020;SDS011;499;42.648;23.270;2023-07-29T11:45:27;2.20;;;0.80;;
1020;SDS011;499;42.648;23.270;2023-07-29T11:47:54;1.10;;;0.50;;
1020;SDS011;499;42.648;23.270;2023-07-29T11:50:21;1.20;;;0.50;;
1020;SDS011;499;42.648;23.270;2023-07-29T11:52:49;1.40;;;0.50;;
1020;SDS011;499;42.648;23.270;2023-07-29T11:55:16;1.20;;;0.43;;
1020;SDS011;499;42.648;23.270;2023-07-29T11:57:44;1.40;;;0.60;;
1020;SDS011;499;42.648;23.270;2023-07-29T12:00:17;1.20;;;0.53;;
1020;SDS011;499;42.648;23.270;2023-07-29T12:02:44;1.30;;;0.50;;
1020;SDS011;499;42.648;23.270;2023-07-29T12:05:13;1.60;;;0.70;;
1020;SDS011;499;42.648;23.270;2023-07-29T12:07:41;1.30;;;0.50;;
1020;SDS011;499;42.648;23.270;2023-07-29T12:10:10;1.30;;;0.50;;
1020;SDS011;499;42.648;23.270;2023-07-29T12:12:40;1.10;;;0.43;;
1020;SDS011;499;42.648;23.270;2023-07-29T12:15:11;1.27;;;0.40;;
1020;SDS011;499;42.648;23.270;2023-07-29T12:17:39;1.10;;;0.30;;
1020;SDS011;499;42.648;23.270;2023-07-29T12:20:08;1.47;;;0.60;;
1020;SDS011;499;42.648;23.270;2023-07-29T12:22:35;1.20;;;0.70;;
1020;SDS011;499;42.648;23.270;2023-07-29T12:25:03;1.50;;;0.70;;
1020;SDS011;499;42.648;23.270;2023-07-29T12:27:32;1.30;;;0.60;;
1020;SDS011;499;42.648;23.270;2023-07-29T12:30:01;1.70;;;0.67;;
1020;SDS011;499;42.648;23.270;2023-07-29T12:32:29;1.20;;;0.53;;
1020;SDS011;499;42.648;23.270;2023-07-29T12:34:56;1.20;;;0.40;;
1020;SDS011;499;42.648;23.270;2023-07-29T12:37:30;1.50;;;0.60;;
1020;SDS011;499;42.648;23.270;2023-07-29T12:39:58;1.50;;;0.60;;
1020;SDS011;499;42.648;23.270;2023-07-29T12:42:25;1.70;;;0.57;;
1020;SDS011;499;42.648;23.270;2023-07-29T12:44:53;1.50;;;0.83;;
1020;SDS011;499;42.648;23.270;2023-07-29T12:47:20;1.70;;;0.67;;
1020;SDS011;499;42.648;23.270;2023-07-29T12:49:47;1.50;;;0.40;;
1020;SDS011;499;42.648;23.270;2023-07-29T12:52:14;1.20;;;0.53;;
1020;SDS011;499;42.648;23.270;2023-07-29T12:54:41;1.20;;;0.60;;
1020;SDS011;499;42.648;23.270;2023-07-29T12:57:09;2.37;;;0.73;;
1020;SDS011;499;42.648;23.270;2023-07-29T12:59:36;1.10;;;0.47;;
1020;SDS011;499;42.648;23.270;2023-07-29T13:02:04;1.30;;;0.53;;
1020;SDS011;499;42.648;23.270;2023-07-29T13:04:31;1.20;;;0.43;;
1020;SDS011;499;42.648;23.270;2023-07-29T13:06:58;1.60;;;0.67;;
1020;SDS011;499;42.648;23.270;2023-07-29T13:09:26;1.40;;;0.70;;
1020;SDS011;499;42.648;23.270;2023-07-29T13:11:53;1.20;;;0.50;;
1020;SDS011;499;42.648;23.270;2023-07-29T13:14:20;1.27;;;0.50;;
1020;SDS011;499;42.648;23.270;2023-07-29T13:16:47;1.07;;;0.40;;
1020;SDS011;499;42.648;23.270;2023-07-29T13:19:15;1.30;;;0.50;;
1020;SDS011;499;42.648;23.270;2023-07-29T13:21:42;1.40;;;0.67;;
1020;SDS011;499;42.648;23.270;2023-07-29T13:24:09;1.10;;;0.50;;
1020;SDS011;499;42.648;23.270;2023-07-29T13:26:36;1.20;;;0.57;;
1020;SDS011;499;42.648;23.270;2023-07-29T13:29:03;1.20;;;0.40;;
1020;SDS011;499;42.648;23.270;2023-07-29T13:31:30;1.53;;;0.80;;
1020;SDS011;499;42.648;23.270;2023-07-29T13:33:57;1.70;;;0.60;;
1020;SDS011;499;42.648;23.270;2023-07-29T13:36:25;4.53;;;0.90;;
1020;SDS011;499;42.648;23.270;2023-07-29T13:38:52;1.47;;;0.93;;
1020;SDS011;499;42.648;23.270;2023-07-29T13:41:19;1.23;;;0.50;;
1020;SDS011;499;42.648;23.270;2023-07-29T13:43:46;1.17;;;0.50;;
1020;SDS011;499;42.648;23.270;2023-07-29T13:46:13;1.10;;;0.40;;
1020;SDS011;499;42.648;23.270;2023-07-29T13:48:40;1.10;;;0.50;;
1020;SDS011;499;42.648;23.270;2023-07-29T13:51:07;1.80;;;0.50;;
1020;SDS011;499;42.648;23.270;2023-07-29T13:53:35;1.20;;;0.50;;
1020;SDS011;499;42.648;23.270;2023-07-29T13:56:03;1.20;;;0.60;;
1020;SDS011;499;42.648;23.270;2023-07-29T13:58:30;1.40;;;0.80;;
1020;SDS011;499;42.648;23.270;2023-07-29T14:00:57;1.23;;;0.60;;
1020;SDS011;499;42.648;23.270;2023-07-29T14:03:24;1.10;;;0.57;;
1020;SDS011;499;42.648;23.270;2023-07-29T14:05:51;1.60;;;0.70;;
1020;SDS011;499;42.648;23.270;2023-07-29T14:08:18;1.47;;;0.70;;
1020;SDS011;499;42.648;23.270;2023-07-29T14:10:46;2.33;;;1.10;;
1020;SDS011;499;42.648;23.270;2023-07-29T14:13:14;2.03;;;1.00;;
1020;SDS011;499;42.648;23.270;2023-07-29T14:15:41;1.20;;;0.50;;
1020;SDS011;499;42.648;23.270;2023-07-29T14:18:08;1.70;;;0.70;;
1020;SDS011;499;42.648;23.270;2023-07-29T14:20:35;1.73;;;0.97;;
1020;SDS011;499;42.648;23.270;2023-07-29T14:23:02;1.60;;;0.80;;
1020;SDS011;499;42.648;23.270;2023-07-29T14:25:29;1.60;;;0.70;;
1020;SDS011;499;42.648;23.270;2023-07-29T14:27:58;1.73;;;0.93;;
1020;SDS011;499;42.648;23.270;2023-07-29T14:30:25;1.13;;;0.40;;
1020;SDS011;499;42.648;23.270;2023-07-29T14:32:52;1.57;;;0.70;;
1020;SDS011;499;42.648;23.270;2023-07-29T14:35:19;1.80;;;0.70;;
1020;SDS011;499;42.648;23.270;2023-07-29T14:37:46;1.40;;;0.73;;
1020;SDS011;499;42.648;23.270;2023-07-29T14:40:13;2.73;;;0.80;;
1020;SDS011;499;42.648;23.270;2023-07-29T14:42:40;1.47;;;0.77;;
1020;SDS011;499;42.648;23.270;2023-07-29T14:45:08;1.30;;;0.70;;
1020;SDS011;499;42.648;23.270;2023-07-29T14:47:36;1.33;;;0.63;;
1020;SDS011;499;42.648;23.270;2023-07-29T14:50:03;1.50;;;0.80;;
1020;SDS011;499;42.648;23.270;2023-07-29T14:52:30;1.60;;;0.70;;
1020;SDS011;499;42.648;23.270;2023-07-29T14:54:57;1.40;;;0.80;;
1020;SDS011;499;42.648;23.270;2023-07-29T14:57:24;1.30;;;0.80;;
1020;SDS011;499;42.648;23.270;2023-07-29T14:59:51;1.67;;;0.50;;
1020;SDS011;499;42.648;23.270;2023-07-29T15:02:20;1.70;;;0.87;;
1020;SDS011;499;42.648;23.270;2023-07-29T15:04:47;1.20;;;0.40;;
1020;SDS011;499;42.648;23.270;2023-07-29T15:07:14;1.57;;;0.70;;
1020;SDS011;499;42.648;23.270;2023-07-29T15:09:41;1.40;;;0.60;;
1020;SDS011;499;42.648;23.270;2023-07-29T15:12:08;1.30;;;0.57;;
1020;SDS011;499;42.648;23.270;2023-07-29T15:14:35;1.20;;;0.50;;
1020;SDS011;499;42.648;23.270;2023-07-29T15:17:02;1.40;;;0.77;;
1020;SDS011;499;42.648;23.270;2023-07-29T15:19:31;1.30;;;0.70;;